AGGH/HIR METAR and TAF weather

Enter ICAO airport designator
Station Type Date Time Source
AGGH METAR 2021/07/26 16:00 UTC NOAA

AGGH 261600Z 18003KT 9999 FEW014 SCT100 BKN300 23/23 Q1011


Station Type Date Time Source
AGGH Decoded METAR 2021/07/26 16:00 UTC NOAA

Honiara / Henderson, Solomon Islands (AGGH) 09-25S 160-03E 9M
Jul 26, 2021 - 12:00 PM EDT / 2021.07.26 1600 UTC
Wind: from the S (180 degrees) at 3 MPH (3 KT):0
Visibility: greater than 7 mile(s):0
Sky conditions: mostly cloudy
Temperature: 73 F (23 C)
Dew Point: 73 F (23 C)
Relative Humidity: 100%
Pressure (altimeter): 29.85 in. Hg (1011 hPa)
ob: AGGH 261600Z 18003KT 9999 FEW014 SCT100 BKN300 23/23 Q1011
cycle: 16

Station Type Date Time Source
AGGH TAF 2021/07/26 12:48 UTC NOAA

TAF AGGH 261130Z 2612/2712 20007KT 9999 -SHRA FEW016 SCT028 BKN100 INTER 2612/2619 5000 TSSH SCT014 FEW015CB BKN026 T 26 24 23 26 Q 1012 1010 1009 1011

Example: see airport list